createdAt,value
2019-05-11T00:03:20.853Z,108.80
2019-05-11T00:07:22.981Z,77.23
2019-05-11T00:11:25.244Z,84.03
2019-05-11T00:15:27.541Z,52.53
2019-05-11T00:19:30.890Z,46.57
2019-05-11T00:23:32.991Z,35.87
2019-05-11T00:27:35.165Z,39.33
2019-05-11T00:31:37.374Z,41.30
2019-05-11T00:35:39.496Z,48.47
2019-05-11T00:39:41.658Z,42.80
2019-05-11T00:43:43.934Z,60.63
2019-05-11T00:47:46.316Z,43.57
2019-05-11T00:51:48.622Z,38.77
2019-05-11T00:55:51.051Z,36.50
2019-05-11T00:59:53.297Z,56.00
2019-05-11T01:03:55.434Z,42.40
2019-05-11T01:07:58.494Z,50.80
2019-05-11T01:12:00.678Z,52.20
2019-05-11T01:16:04.572Z,50.77
2019-05-11T01:20:07.154Z,50.50
2019-05-11T01:24:09.466Z,42.97
2019-05-11T01:28:13.116Z,50.40
2019-05-11T01:32:15.432Z,53.57
2019-05-11T01:36:17.759Z,50.90
2019-05-11T01:40:20.003Z,45.70
2019-05-11T01:44:22.536Z,46.80
2019-05-11T01:48:24.655Z,51.87
2019-05-11T01:52:27.033Z,50.10
2019-05-11T01:56:29.219Z,52.67
2019-05-11T02:00:32.480Z,50.93
2019-05-11T02:04:34.630Z,52.77
2019-05-11T02:08:36.962Z,66.13
2019-05-11T02:12:39.004Z,50.03
2019-05-11T02:16:41.618Z,63.73
2019-05-11T02:20:43.860Z,41.23
2019-05-11T02:24:46.255Z,43.40
2019-05-11T02:28:48.497Z,41.37
2019-05-11T02:32:50.832Z,30.00
2019-05-11T02:36:53.104Z,24.87
2019-05-11T02:40:55.312Z,35.67
2019-05-11T02:44:57.590Z,32.37
2019-05-11T02:48:59.828Z,22.50
2019-05-11T02:53:02.386Z,24.63
2019-05-11T02:57:04.714Z,30.87
2019-05-11T03:01:06.892Z,21.17
2019-05-11T03:05:09.376Z,35.60
2019-05-11T03:09:11.523Z,27.97
2019-05-11T03:13:14.323Z,34.77
2019-05-11T03:17:20.616Z,25.00
2019-05-11T03:21:22.914Z,40.17
2019-05-11T03:25:25.354Z,23.17
2019-05-11T03:29:27.777Z,21.50
2019-05-11T03:33:30.070Z,18.50
2019-05-11T03:37:32.455Z,25.60
2019-05-11T03:41:34.656Z,24.03
2019-05-11T03:45:37.166Z,35.73
2019-05-11T03:49:39.574Z,54.40
2019-05-11T03:53:41.860Z,38.00
2019-05-11T03:57:44.020Z,17.73
2019-05-11T04:01:46.260Z,20.77
2019-05-11T04:05:49.499Z,31.07
2019-05-11T04:09:51.715Z,19.27
2019-05-11T04:13:54.055Z,32.90
2019-05-11T04:17:56.370Z,28.70
2019-05-11T04:21:58.542Z,49.73
2019-05-11T04:26:00.943Z,44.43
2019-05-11T04:30:03.020Z,34.33
2019-05-11T04:34:05.233Z,30.83
2019-05-11T04:38:07.443Z,74.43
2019-05-11T04:42:09.766Z,28.90
2019-05-11T04:46:12.033Z,19.83
2019-05-11T04:50:14.774Z,25.97
2019-05-11T04:54:17.054Z,19.03
2019-05-11T04:58:19.271Z,22.00
2019-05-11T05:02:21.853Z,23.20
2019-05-11T05:06:24.771Z,28.10
2019-05-11T05:10:27.011Z,25.77
2019-05-11T05:14:29.285Z,25.73
2019-05-11T05:18:31.922Z,22.63
2019-05-11T05:22:34.216Z,24.50
2019-05-11T05:26:36.461Z,25.63
2019-05-11T05:30:38.823Z,19.50
2019-05-11T05:34:40.922Z,26.07
2019-05-11T05:38:43.142Z,19.00
2019-05-11T05:42:45.287Z,19.47
2019-05-11T05:46:47.618Z,19.10
2019-05-11T05:50:49.725Z,20.07
2019-05-11T05:54:51.969Z,20.93
2019-05-11T05:58:54.201Z,19.20
2019-05-11T06:02:56.402Z,17.53
2019-05-11T06:06:58.482Z,19.70
2019-05-11T06:11:00.766Z,19.67
2019-05-11T06:15:04.044Z,22.73
2019-05-11T06:19:06.648Z,22.20
2019-05-11T06:23:08.897Z,18.07
2019-05-11T06:27:12.051Z,21.00
2019-05-11T06:31:14.198Z,19.07
2019-05-11T06:35:16.720Z,19.43
2019-05-11T06:39:19.179Z,21.40
2019-05-11T06:43:21.491Z,21.53
2019-05-11T06:47:23.653Z,29.77
2019-05-11T06:51:27.323Z,20.50
2019-05-11T06:55:29.664Z,22.87
2019-05-11T06:59:31.933Z,26.00
2019-05-11T07:03:34.421Z,23.17
2019-05-11T07:07:47.025Z,18.70
2019-05-11T07:11:42.548Z,19.70
2019-05-11T07:15:44.781Z,19.33
2019-05-11T07:19:47.701Z,20.70
2019-05-11T07:23:50.140Z,22.93
2019-05-11T07:27:52.631Z,21.53
2019-05-11T07:31:54.823Z,23.00
2019-05-11T07:35:58.274Z,26.30
2019-05-11T07:40:00.587Z,25.03
2019-05-11T07:44:04.182Z,23.30
2019-05-11T07:48:08.037Z,17.93
2019-05-11T07:52:10.297Z,20.57
2019-05-11T07:56:12.462Z,20.10
2019-05-11T08:00:14.742Z,21.23
2019-05-11T08:04:18.300Z,21.70
2019-05-11T08:08:20.763Z,25.73
2019-05-11T08:12:23.163Z,26.23
2019-05-11T08:16:28.235Z,26.70
2019-05-11T08:20:29.653Z,23.17
2019-05-11T08:24:32.003Z,24.17
2019-05-11T08:28:34.317Z,26.40
2019-05-11T08:32:38.705Z,24.87
2019-05-11T08:36:40.824Z,25.70
2019-05-11T08:40:43.163Z,23.37
2019-05-11T08:44:45.516Z,23.67
2019-05-11T08:48:47.994Z,27.17
2019-05-11T08:52:50.474Z,24.13
2019-05-11T08:56:53.557Z,27.90
2019-05-11T09:00:58.043Z,28.43
2019-05-11T09:04:59.642Z,25.83
2019-05-11T09:09:01.988Z,26.30
2019-05-11T09:13:04.390Z,25.97
2019-05-11T09:17:07.858Z,26.70
2019-05-11T09:21:11.413Z,26.63
2019-05-11T09:25:14.050Z,23.07
2019-05-11T09:29:17.994Z,25.93
2019-05-11T09:33:20.845Z,24.57
2019-05-11T09:37:22.997Z,24.03
2019-05-11T09:41:25.250Z,26.93
2019-05-11T09:45:27.907Z,26.87
2019-05-11T09:49:43.743Z,26.57
2019-05-11T09:53:38.666Z,22.20
2019-05-11T09:57:40.385Z,25.63
2019-05-11T10:01:42.526Z,25.17
2019-05-11T10:05:45.057Z,25.70
2019-05-11T10:09:47.875Z,31.67
2019-05-11T10:13:50.470Z,30.37
2019-05-11T10:17:52.496Z,25.33
2019-05-11T10:21:55.126Z,24.97
2019-05-11T10:25:58.590Z,24.83
2019-05-11T10:30:02.026Z,24.93
2019-05-11T10:34:05.501Z,24.17
2019-05-11T10:38:09.069Z,22.10
2019-05-11T10:42:11.586Z,20.23
2019-05-11T10:46:19.526Z,20.77
2019-05-11T10:50:18.848Z,21.63
2019-05-11T10:54:21.315Z,21.20
2019-05-11T10:58:23.481Z,18.10
2019-05-11T11:02:27.691Z,21.80
2019-05-11T11:06:29.569Z,20.80
2019-05-11T11:10:31.801Z,16.33
2019-05-11T11:14:34.131Z,15.03
2019-05-11T11:18:38.110Z,15.63
2019-05-11T11:22:44.036Z,15.70
2019-05-11T11:26:44.920Z,17.93
2019-05-11T11:30:48.018Z,17.33
2019-05-11T11:34:50.295Z,18.57
2019-05-11T11:38:52.548Z,17.63
2019-05-11T11:42:54.897Z,17.10
2019-05-11T11:46:59.105Z,17.10
2019-05-11T11:51:01.058Z,15.43
2019-05-11T11:55:03.007Z,15.57
2019-05-11T11:59:05.324Z,14.03
2019-05-11T12:03:08.144Z,10.47
2019-05-11T12:07:10.485Z,12.73
2019-05-11T12:11:12.540Z,13.27
2019-05-11T12:15:14.937Z,12.37
2019-05-11T12:19:18.697Z,10.33
2019-05-11T12:23:21.450Z,11.70
2019-05-11T12:27:23.482Z,11.53
2019-05-11T12:31:25.789Z,8.60
2019-05-11T12:35:29.362Z,9.37
2019-05-11T12:39:31.585Z,9.70
2019-05-11T12:43:33.750Z,12.43
2019-05-11T12:47:38.360Z,10.67
2019-05-11T12:51:40.978Z,9.93
2019-05-11T12:55:43.199Z,9.53
2019-05-11T12:59:45.364Z,7.67
2019-05-11T13:03:49.341Z,8.40
2019-05-11T13:07:51.583Z,9.53
2019-05-11T13:11:53.740Z,8.97
2019-05-11T13:15:55.797Z,13.73
2019-05-11T13:19:58.750Z,10.77
2019-05-11T13:24:02.348Z,11.00
2019-05-11T13:28:05.912Z,10.47
2019-05-11T13:32:10.282Z,8.53
2019-05-11T13:36:12.630Z,11.50
2019-05-11T13:40:15.403Z,12.17
2019-05-11T13:44:18.595Z,9.83
2019-05-11T13:48:21.443Z,10.27
2019-05-11T13:52:28.538Z,13.40
2019-05-11T13:56:32.389Z,9.63
2019-05-11T14:00:34.830Z,14.00
2019-05-11T14:04:38.644Z,13.60
2019-05-11T14:08:41.257Z,10.93
2019-05-11T14:12:43.835Z,13.13
2019-05-11T14:16:48.427Z,12.77
2019-05-11T14:20:52.052Z,14.07
2019-05-11T14:24:54.483Z,10.33
2019-05-11T14:28:58.290Z,10.90
2019-05-11T14:33:00.473Z,11.03
2019-05-11T14:37:02.927Z,13.57
2019-05-11T14:41:07.578Z,14.57
2019-05-11T14:45:09.326Z,16.97
2019-05-11T14:49:11.378Z,12.00
2019-05-11T14:53:13.694Z,16.60
2019-05-11T14:57:18.446Z,13.50
2019-05-11T15:01:19.945Z,17.83
2019-05-11T15:05:22.717Z,14.90
2019-05-11T15:09:24.862Z,15.63
2019-05-11T15:13:28.807Z,16.30
2019-05-11T15:17:31.133Z,15.17
2019-05-11T15:21:33.529Z,18.97
2019-05-11T15:25:37.702Z,19.90
2019-05-11T15:29:39.732Z,16.47
2019-05-11T15:33:41.945Z,18.13
2019-05-11T15:37:44.232Z,18.13
2019-05-11T15:41:47.984Z,20.20
2019-05-11T15:45:50.606Z,17.67
2019-05-11T15:49:54.538Z,18.10
2019-05-11T15:53:58.678Z,18.60
2019-05-11T15:58:01.227Z,16.97
2019-05-11T16:02:03.689Z,22.87
2019-05-11T16:06:07.873Z,18.57
2019-05-11T16:10:11.636Z,19.77
2019-05-11T16:14:15.495Z,19.33
2019-05-11T16:18:18.910Z,16.17
2019-05-11T16:22:21.410Z,22.10
2019-05-11T16:26:23.690Z,17.43
2019-05-11T16:30:25.764Z,16.03
2019-05-11T16:34:28.179Z,18.87
2019-05-11T16:38:30.800Z,18.63
2019-05-11T16:42:33.850Z,18.77
2019-05-11T16:46:40.028Z,42.97
2019-05-11T16:50:44.280Z,45.37
2019-05-11T16:54:47.804Z,16.23
2019-05-11T16:58:50.564Z,17.47
2019-05-11T17:02:57.705Z,38.80
2019-05-11T17:06:59.738Z,50.33
2019-05-11T17:11:01.964Z,28.53
2019-05-11T17:15:04.354Z,19.13
2019-05-11T17:19:07.897Z,17.57
2019-05-11T17:23:10.391Z,23.37
2019-05-11T17:27:12.564Z,20.33
2019-05-11T17:31:18.597Z,24.13
2019-05-11T17:35:23.490Z,27.80
2019-05-11T17:39:28.176Z,23.87
2019-05-11T17:43:32.087Z,21.07
2019-05-11T17:47:34.958Z,20.63
2019-05-11T17:51:38.432Z,22.37
2019-05-11T17:55:42.610Z,24.33
2019-05-11T17:59:47.697Z,23.97
2019-05-11T18:03:53.705Z,18.73
2019-05-11T18:07:57.994Z,21.83
2019-05-11T18:12:00.405Z,20.90
2019-05-11T18:16:09.694Z,23.87
2019-05-11T18:20:17.931Z,22.10
2019-05-11T18:24:28.355Z,23.83
2019-05-11T18:28:31.142Z,17.73
2019-05-11T18:32:33.260Z,22.03
2019-05-11T18:36:35.491Z,17.90
2019-05-11T18:40:38.170Z,18.00
2019-05-11T18:44:40.551Z,16.80
2019-05-11T18:48:42.704Z,20.57
2019-05-11T18:52:44.935Z,15.90
2019-05-11T18:56:48.858Z,17.80
2019-05-11T19:00:51.079Z,15.13
2019-05-11T19:04:54.103Z,15.13
2019-05-11T19:08:58.107Z,14.07
2019-05-11T19:13:00.412Z,14.27
2019-05-11T19:17:02.879Z,18.23
2019-05-11T19:21:05.571Z,12.60
2019-05-11T19:25:18.240Z,15.97
2019-05-11T19:29:21.714Z,17.17
2019-05-11T19:33:24.033Z,17.47
2019-05-11T19:37:27.860Z,16.70
2019-05-11T19:41:30.604Z,15.40
2019-05-11T19:45:32.800Z,18.57
2019-05-11T19:49:35.303Z,15.70
2019-05-11T19:53:38.610Z,18.03
2019-05-11T19:57:41.166Z,19.13
2019-05-11T20:01:44.748Z,21.77
2019-05-11T20:05:48.544Z,15.60
2019-05-11T20:09:51.987Z,17.50
2019-05-11T20:13:54.214Z,15.17
2019-05-11T20:17:58.465Z,16.83
2019-05-11T20:22:00.510Z,19.50
2019-05-11T20:26:02.952Z,16.43
2019-05-11T20:30:05.448Z,17.00
2019-05-11T20:34:07.713Z,16.93
2019-05-11T20:38:10.133Z,11.93
2019-05-11T20:42:12.184Z,15.67
2019-05-11T20:46:14.389Z,15.90
2019-05-11T20:50:18.404Z,17.67
2019-05-11T20:54:20.470Z,16.70
2019-05-11T20:58:22.633Z,21.90
2019-05-11T21:02:24.892Z,21.57
2019-05-11T21:06:29.382Z,18.07
2019-05-11T21:10:31.069Z,17.10
2019-05-11T21:14:33.451Z,20.07
2019-05-11T21:18:38.005Z,15.73
2019-05-11T21:22:40.744Z,18.87
2019-05-11T21:26:43.257Z,22.87
2019-05-11T21:30:47.925Z,20.53
2019-05-11T21:34:49.317Z,16.93
2019-05-11T21:38:51.691Z,24.17
2019-05-11T21:42:54.009Z,18.03
2019-05-11T21:46:56.158Z,19.23
2019-05-11T21:50:59.934Z,21.13
2019-05-11T21:55:02.187Z,22.43
2019-05-11T21:59:04.382Z,20.83
2019-05-11T22:03:09.988Z,17.77
2019-05-11T22:07:10.922Z,18.03
2019-05-11T22:11:14.254Z,19.20
2019-05-11T22:15:18.037Z,21.43
2019-05-11T22:19:20.232Z,20.27
2019-05-11T22:23:22.871Z,17.63
2019-05-11T22:27:24.925Z,20.17
2019-05-11T22:31:27.996Z,18.77
2019-05-11T22:35:30.395Z,15.43
2019-05-11T22:39:32.744Z,21.13
2019-05-11T22:43:34.849Z,18.27
2019-05-11T22:47:39.262Z,21.87
2019-05-11T22:51:40.950Z,18.30
2019-05-11T22:55:43.161Z,18.13
2019-05-11T22:59:45.529Z,22.57
2019-05-11T23:03:47.986Z,20.47
2019-05-11T23:07:50.172Z,19.57
2019-05-11T23:11:52.333Z,20.97
2019-05-11T23:15:54.607Z,20.57
2019-05-11T23:19:57.962Z,19.87
2019-05-11T23:24:01.244Z,18.40
2019-05-11T23:28:03.416Z,19.67
2019-05-11T23:32:05.675Z,20.33
2019-05-11T23:36:07.971Z,23.03
2019-05-11T23:40:10.428Z,23.80
2019-05-11T23:44:12.790Z,18.10
2019-05-11T23:48:15.061Z,21.50
2019-05-11T23:52:18.045Z,25.43
2019-05-11T23:56:20.444Z,20.33
